Tomiei Maru — JD3429 — position and weather

sailwx.info

Track history (hours):
 
Tides and Currents Weather Stations Pressure Air Temp Water Temp Dewpoint Dewpoint Depression Visibility Wind Speed Wind Dir Waves Ship Positions

Tomiei Maru

Last reported at 2018-May-22 07:25 UTC. Time now 2018-May-22 17:37 UTC.
Position N 34°38' E 135°28'.

Length 75 m; draft 4.3 m.

Type: Cargo ship. MMSI: 431004012.

Date/timePositionNaut miles runAvg speedWind from/ knotsBaromVisibWave heightAir tempDewpointWater temp
2018-May-22 07:25N 34°38' E 135°28'0 0.0
2018-May-21 07:26N 34°38' E 135°28'0 0.0
2018-May-21 04:08N 34°38' E 135°28'0 0.0
2018-May-21 03:50N 34°38' E 135°28'0 0.0
2018-May-21 03:26N 34°38' E 135°28'0 0.0
2018-May-21 02:56N 34°38' E 135°28'0 0.0
2018-May-21 01:50N 34°38' E 135°28'0 0.0
2018-May-21 01:26N 34°38' E 135°28'0 0.0
2018-May-19 09:40N 34°38' E 135°27'1 7.5
2018-May-19 09:30N 34°39' E 135°27'1 0.1
2018-May-19 02:37N 34°38' E 135°28'0 2.9
2018-May-19 02:30N 34°39' E 135°28'2 5.0
2018-May-19 02:00N 34°37' E 135°25'1 1.1
2018-May-19 01:30N 34°37' E 135°26'0 0.0
2018-May-19 01:00N 34°37' E 135°26'0 0.0
2018-May-19 00:25N 34°37' E 135°26'0 0.0
2018-May-18 23:55N 34°37' E 135°26'0 0.0
2018-May-18 23:30N 34°37' E 135°26'0 0.0
2018-May-18 23:00N 34°37' E 135°26'2 3.5
2018-May-18 22:30N 34°38' E 135°24'1 1.1
2018-May-18 21:55N 34°37' E 135°23'0 0.1
2018-May-18 21:13N 34°37' E 135°23'0 0.2
2018-May-18 20:55N 34°37' E 135°23'0 0.0
2018-May-18 20:19N 34°37' E 135°23'0 0.0
2018-May-18 19:49N 34°37' E 135°23'0 0.0
2018-May-18 19:25N 34°37' E 135°23'0 0.1
2018-May-18 18:55N 34°37' E 135°23'0 0.1
2018-May-18 18:19N 34°38' E 135°23'0 0.1
2018-May-18 17:55N 34°38' E 135°23'0 1.0
2018-May-18 17:30N 34°37' E 135°23'612.4
2018-May-18 17:00N 34°33' E 135°17'713.1
2018-May-18 16:30N 34°28' E 135°12'612.9
2018-May-18 16:00N 34°23' E 135°07'612.6
2018-May-18 15:30N 34°17' E 135°04'612.9
2018-May-18 15:00N 34°11' E 135°03'713.7
2018-May-18 14:31N 34°04' E 135°03'713.8
2018-May-18 14:00N 33°57' E 135°03'23010.1
2018-May-17 15:14N 35°00' E 139°30'311.7
2018-May-17 14:59N 35°02' E 139°33'611.9
2018-May-17 14:30N 35°05' E 139°39'612.1
2018-May-17 14:00N 35°10' E 139°44'612.2
2018-May-17 13:30N 35°16' E 139°46'612.7
2018-May-17 13:00N 35°21' E 139°42'612.3
2018-May-17 12:30N 35°26' E 139°46'17 0.6
2018-May-16 07:07N 35°41' E 139°58'0 0.0
2018-May-16 06:58N 35°41' E 139°58'0 0.0
2018-May-15 22:51N 35°41' E 139°58'3 4.0
2018-May-15 22:06N 35°38' E 139°58'0 0.0
2018-May-15 17:16N 35°38' E 139°59'711.5
2018-May-15 16:40N 35°32' E 139°54'212.6
2018-May-15 16:30N 35°30' E 139°53'612.5
2018-May-15 16:01N 35°25' E 139°48'612.5
2018-May-15 15:30N 35°20' E 139°44'611.6
2018-May-15 15:01N 35°15' E 139°47'611.7
2018-May-15 14:30N 35°09' E 139°45'611.9
2018-May-15 14:00N 35°04' E 139°41'713.2
2018-May-15 13:30N 34°60' E 139°35'714.7
2018-May-15 13:00N 34°56' E 139°27'815.0
2018-May-15 12:28N 34°51' E 139°19'714.5
2018-May-15 12:00N 34°47' E 139°13'713.8
2018-May-15 11:30N 34°42' E 139°07'813.2
2018-May-15 10:55N 34°37' E 139°00'614.0
2018-May-15 10:30N 34°35' E 138°53'913.8
2018-May-15 09:52N 34°35' E 138°43'513.3
2018-May-15 09:30N 34°35' E 138°37'712.7
2018-May-15 08:56N 34°34' E 138°28'712.2
2018-May-15 08:24N 34°34' E 138°20'1012.8
2018-May-15 07:36N 34°33' E 138°08'1012.2
2018-May-15 06:45N 34°31' E 137°56'14710.1
2018-May-14 16:08N 33°49' E 135°05'212.7
2018-May-14 15:56N 33°51' E 135°03'512.7
2018-May-14 15:30N 33°56' E 135°00'612.6
2018-May-14 15:00N 34°02' E 134°60'612.4
2018-May-14 14:30N 34°09' E 134°59'612.4
2018-May-14 14:00N 34°15' E 134°59'612.0
2018-May-14 13:30N 34°21' E 134°60'612.2
2018-May-14 13:00N 34°27' E 135°01'612.0
2018-May-14 12:30N 34°33' E 135°02'4 8.6
2018-May-14 12:00N 34°37' E 135°01'510.5
2018-May-14 11:30N 34°36' E 134°55'510.6
2018-May-14 11:00N 34°40' E 134°50'3 0.2
2018-May-13 22:04N 34°43' E 134°48'0 9.1
2018-May-13 22:01N 34°42' E 134°49'2 4.2
2018-May-13 21:29N 34°43' E 134°51'0 0.0
2018-May-13 20:54N 34°43' E 134°51'0 0.0
2018-May-13 20:24N 34°43' E 134°51'0 0.0
2018-May-13 20:00N 34°43' E 134°51'0 0.0
2018-May-13 19:30N 34°43' E 134°51'0 0.0
2018-May-13 19:00N 34°43' E 134°51'0 0.0
2018-May-13 18:30N 34°43' E 134°51'0 0.0
2018-May-13 17:18N 34°43' E 134°51'0 0.0
2018-May-13 17:00N 34°43' E 134°51'0 0.0
2018-May-13 16:30N 34°43' E 134°51'0 0.0
2018-May-13 16:00N 34°43' E 134°51'0 0.0
2018-May-13 15:30N 34°43' E 134°51'0 0.0
2018-May-13 15:00N 34°43' E 134°51'0 0.0
2018-May-13 14:24N 34°43' E 134°51'0 0.0
2018-May-13 14:00N 34°43' E 134°51'0 0.0
2018-May-13 13:30N 34°43' E 134°51'0 0.0
2018-May-13 12:54N 34°43' E 134°51'0 0.0
2018-May-13 12:30N 34°43' E 134°51'0 0.0
2018-May-13 12:00N 34°43' E 134°51'0 0.0
2018-May-13 11:24N 34°43' E 134°51'0 0.0
2018-May-13 11:00N 34°43' E 134°51'0 0.0
2018-May-13 10:24N 34°43' E 134°51'0 0.0
2018-May-13 10:00N 34°43' E 134°51'0 0.0
2018-May-13 09:30N 34°43' E 134°51'0 0.0
2018-May-13 09:00N 34°43' E 134°51'0 0.0
2018-May-13 08:18N 34°43' E 134°51'0 0.0
2018-May-13 08:00N 34°43' E 134°51'0 0.0
2018-May-13 07:12N 34°43' E 134°51'0 0.0
2018-May-13 06:48N 34°43' E 134°51'0 0.0
2018-May-13 06:30N 34°43' E 134°51'0 0.0
2018-May-13 06:00N 34°43' E 134°51'0 0.0
2018-May-13 05:24N 34°43' E 134°51'0 0.0
2018-May-13 05:00N 34°43' E 134°51'0 0.0
2018-May-13 02:24N 34°43' E 134°51'0 0.0
2018-May-13 01:54N 34°43' E 134°51'0 0.0
2018-May-13 01:30N 34°43' E 134°51'0 0.0
2018-May-13 01:00N 34°43' E 134°51'2 3.7
2018-May-13 00:30N 34°41' E 134°50'713.3
2018-May-13 00:00N 34°37' E 134°44'713.0
2018-May-12 23:30N 34°31' E 134°41'613.1
2018-May-12 23:00N 34°24' E 134°39'713.1
2018-May-12 22:30N 34°18' E 134°38'713.8
2018-May-12 21:58N 34°11' E 134°42'713.4
2018-May-12 21:28N 34°06' E 134°47'613.5
2018-May-12 21:00N 34°01' E 134°52'713.5
2018-May-12 20:30N 33°56' E 134°58'108 9.7
2018-May-12 09:20N 34°32' E 137°01'813.7
2018-May-12 08:46N 34°38' E 136°54'313.6
2018-May-12 08:30N 34°40' E 136°51'612.8
2018-May-12 08:00N 34°45' E 136°47'612.4
2018-May-12 07:31N 34°52' E 136°46'  
Track history (hours):
 
Tides and Currents Weather Stations Pressure Air Temp Water Temp Dewpoint Dewpoint Depression Visibility Wind Speed Wind Dir Waves Ship Positions

Tomiei Maru

Last reported at 2018-May-22 07:25 UTC. Time now 2018-May-22 17:37 UTC.
Position N 34°38' E 135°28'.

Length 75 m; draft 4.3 m.

Type: Cargo ship. MMSI: 431004012.

Date/timePositionNaut miles runAvg speedWind from/ knotsBaromVisibWave heightAir tempDewpointWater temp
2018-May-22 07:25N 34°38' E 135°28'0 0.0
2018-May-21 07:26N 34°38' E 135°28'0 0.0
2018-May-21 04:08N 34°38' E 135°28'0 0.0
2018-May-21 03:50N 34°38' E 135°28'0 0.0
2018-May-21 03:26N 34°38' E 135°28'0 0.0
2018-May-21 02:56N 34°38' E 135°28'0 0.0
2018-May-21 01:50N 34°38' E 135°28'0 0.0
2018-May-21 01:26N 34°38' E 135°28'0 0.0
2018-May-19 09:40N 34°38' E 135°27'1 7.5
2018-May-19 09:30N 34°39' E 135°27'1 0.1
2018-May-19 02:37N 34°38' E 135°28'0 2.9
2018-May-19 02:30N 34°39' E 135°28'2 5.0
2018-May-19 02:00N 34°37' E 135°25'1 1.1
2018-May-19 01:30N 34°37' E 135°26'0 0.0
2018-May-19 01:00N 34°37' E 135°26'0 0.0
2018-May-19 00:25N 34°37' E 135°26'0 0.0
2018-May-18 23:55N 34°37' E 135°26'0 0.0
2018-May-18 23:30N 34°37' E 135°26'0 0.0
2018-May-18 23:00N 34°37' E 135°26'2 3.5
2018-May-18 22:30N 34°38' E 135°24'1 1.1
2018-May-18 21:55N 34°37' E 135°23'0 0.1
2018-May-18 21:13N 34°37' E 135°23'0 0.2
2018-May-18 20:55N 34°37' E 135°23'0 0.0
2018-May-18 20:19N 34°37' E 135°23'0 0.0
2018-May-18 19:49N 34°37' E 135°23'0 0.0
2018-May-18 19:25N 34°37' E 135°23'0 0.1
2018-May-18 18:55N 34°37' E 135°23'0 0.1
2018-May-18 18:19N 34°38' E 135°23'0 0.1
2018-May-18 17:55N 34°38' E 135°23'0 1.0
2018-May-18 17:30N 34°37' E 135°23'612.4
2018-May-18 17:00N 34°33' E 135°17'713.1
2018-May-18 16:30N 34°28' E 135°12'612.9
2018-May-18 16:00N 34°23' E 135°07'612.6
2018-May-18 15:30N 34°17' E 135°04'612.9
2018-May-18 15:00N 34°11' E 135°03'713.7
2018-May-18 14:31N 34°04' E 135°03'713.8
2018-May-18 14:00N 33°57' E 135°03'23010.1
2018-May-17 15:14N 35°00' E 139°30'311.7
2018-May-17 14:59N 35°02' E 139°33'611.9
2018-May-17 14:30N 35°05' E 139°39'612.1
2018-May-17 14:00N 35°10' E 139°44'612.2
2018-May-17 13:30N 35°16' E 139°46'612.7
2018-May-17 13:00N 35°21' E 139°42'612.3
2018-May-17 12:30N 35°26' E 139°46'17 0.6
2018-May-16 07:07N 35°41' E 139°58'0 0.0
2018-May-16 06:58N 35°41' E 139°58'0 0.0
2018-May-15 22:51N 35°41' E 139°58'3 4.0
2018-May-15 22:06N 35°38' E 139°58'0 0.0
2018-May-15 17:16N 35°38' E 139°59'711.5
2018-May-15 16:40N 35°32' E 139°54'212.6
2018-May-15 16:30N 35°30' E 139°53'612.5
2018-May-15 16:01N 35°25' E 139°48'612.5
2018-May-15 15:30N 35°20' E 139°44'611.6
2018-May-15 15:01N 35°15' E 139°47'611.7
2018-May-15 14:30N 35°09' E 139°45'611.9
2018-May-15 14:00N 35°04' E 139°41'713.2
2018-May-15 13:30N 34°60' E 139°35'714.7
2018-May-15 13:00N 34°56' E 139°27'815.0
2018-May-15 12:28N 34°51' E 139°19'714.5
2018-May-15 12:00N 34°47' E 139°13'713.8
2018-May-15 11:30N 34°42' E 139°07'813.2
2018-May-15 10:55N 34°37' E 139°00'614.0
2018-May-15 10:30N 34°35' E 138°53'913.8
2018-May-15 09:52N 34°35' E 138°43'513.3
2018-May-15 09:30N 34°35' E 138°37'712.7
2018-May-15 08:56N 34°34' E 138°28'712.2
2018-May-15 08:24N 34°34' E 138°20'1012.8
2018-May-15 07:36N 34°33' E 138°08'1012.2
2018-May-15 06:45N 34°31' E 137°56'14710.1
2018-May-14 16:08N 33°49' E 135°05'212.7
2018-May-14 15:56N 33°51' E 135°03'512.7
2018-May-14 15:30N 33°56' E 135°00'612.6
2018-May-14 15:00N 34°02' E 134°60'612.4
2018-May-14 14:30N 34°09' E 134°59'612.4
2018-May-14 14:00N 34°15' E 134°59'612.0
2018-May-14 13:30N 34°21' E 134°60'612.2
2018-May-14 13:00N 34°27' E 135°01'612.0
2018-May-14 12:30N 34°33' E 135°02'4 8.6
2018-May-14 12:00N 34°37' E 135°01'510.5
2018-May-14 11:30N 34°36' E 134°55'510.6
2018-May-14 11:00N 34°40' E 134°50'3 0.2
2018-May-13 22:04N 34°43' E 134°48'0 9.1
2018-May-13 22:01N 34°42' E 134°49'2 4.2
2018-May-13 21:29N 34°43' E 134°51'0 0.0
2018-May-13 20:54N 34°43' E 134°51'0 0.0
2018-May-13 20:24N 34°43' E 134°51'0 0.0
2018-May-13 20:00N 34°43' E 134°51'0 0.0
2018-May-13 19:30N 34°43' E 134°51'0 0.0
2018-May-13 19:00N 34°43' E 134°51'0 0.0
2018-May-13 18:30N 34°43' E 134°51'0 0.0
2018-May-13 17:18N 34°43' E 134°51'0 0.0
2018-May-13 17:00N 34°43' E 134°51'0 0.0
2018-May-13 16:30N 34°43' E 134°51'0 0.0
2018-May-13 16:00N 34°43' E 134°51'0 0.0
2018-May-13 15:30N 34°43' E 134°51'0 0.0
2018-May-13 15:00N 34°43' E 134°51'0 0.0
2018-May-13 14:24N 34°43' E 134°51'0 0.0
2018-May-13 14:00N 34°43' E 134°51'0 0.0
2018-May-13 13:30N 34°43' E 134°51'0 0.0
2018-May-13 12:54N 34°43' E 134°51'0 0.0
2018-May-13 12:30N 34°43' E 134°51'0 0.0
2018-May-13 12:00N 34°43' E 134°51'0 0.0
2018-May-13 11:24N 34°43' E 134°51'0 0.0
2018-May-13 11:00N 34°43' E 134°51'0 0.0
2018-May-13 10:24N 34°43' E 134°51'0 0.0
2018-May-13 10:00N 34°43' E 134°51'0 0.0
2018-May-13 09:30N 34°43' E 134°51'0 0.0
2018-May-13 09:00N 34°43' E 134°51'0 0.0
2018-May-13 08:18N 34°43' E 134°51'0 0.0
2018-May-13 08:00N 34°43' E 134°51'0 0.0
2018-May-13 07:12N 34°43' E 134°51'0 0.0
2018-May-13 06:48N 34°43' E 134°51'0 0.0
2018-May-13 06:30N 34°43' E 134°51'0 0.0
2018-May-13 06:00N 34°43' E 134°51'0 0.0
2018-May-13 05:24N 34°43' E 134°51'0 0.0
2018-May-13 05:00N 34°43' E 134°51'0 0.0
2018-May-13 02:24N 34°43' E 134°51'0 0.0
2018-May-13 01:54N 34°43' E 134°51'0 0.0
2018-May-13 01:30N 34°43' E 134°51'0 0.0
2018-May-13 01:00N 34°43' E 134°51'2 3.7
2018-May-13 00:30N 34°41' E 134°50'713.3
2018-May-13 00:00N 34°37' E 134°44'713.0
2018-May-12 23:30N 34°31' E 134°41'613.1
2018-May-12 23:00N 34°24' E 134°39'713.1
2018-May-12 22:30N 34°18' E 134°38'713.8
2018-May-12 21:58N 34°11' E 134°42'713.4
2018-May-12 21:28N 34°06' E 134°47'613.5
2018-May-12 21:00N 34°01' E 134°52'713.5
2018-May-12 20:30N 33°56' E 134°58'108 9.7
2018-May-12 09:20N 34°32' E 137°01'813.7
2018-May-12 08:46N 34°38' E 136°54'313.6
2018-May-12 08:30N 34°40' E 136°51'612.8
2018-May-12 08:00N 34°45' E 136°47'612.4
2018-May-12 07:31N 34°52' E 136°46'  

Dump ship's entire track history